sensor_id;sensor_type;location;lat;lon;timestamp;P1;durP1;ratioP1;P2;durP2;ratioP2
73487;SDS011;61721;42.206;25.320;2022-08-11T00:00:21;5.78;;;3.38;;
73487;SDS011;61721;42.206;25.320;2022-08-11T00:03:02;5.63;;;3.13;;
73487;SDS011;61721;42.206;25.320;2022-08-11T00:05:32;6.28;;;3.10;;
73487;SDS011;61721;42.206;25.320;2022-08-11T00:08:08;9.18;;;4.00;;
73487;SDS011;61721;42.206;25.320;2022-08-11T00:10:38;5.45;;;3.33;;
73487;SDS011;61721;42.206;25.320;2022-08-11T00:13:06;6.78;;;3.15;;
73487;SDS011;61721;42.206;25.320;2022-08-11T00:15:37;5.32;;;3.08;;
73487;SDS011;61721;42.206;25.320;2022-08-11T00:18:07;5.47;;;2.95;;
73487;SDS011;61721;42.206;25.320;2022-08-11T00:20:37;8.05;;;3.30;;
73487;SDS011;61721;42.206;25.320;2022-08-11T00:23:07;5.22;;;3.10;;
73487;SDS011;61721;42.206;25.320;2022-08-11T00:25:36;5.13;;;2.92;;
73487;SDS011;61721;42.206;25.320;2022-08-11T00:30:55;6.35;;;3.30;;
73487;SDS011;61721;42.206;25.320;2022-08-11T00:33:29;6.03;;;3.40;;
73487;SDS011;61721;42.206;25.320;2022-08-11T00:36:00;6.03;;;3.05;;
73487;SDS011;61721;42.206;25.320;2022-08-11T00:38:31;5.28;;;3.13;;
73487;SDS011;61721;42.206;25.320;2022-08-11T00:41:05;7.03;;;3.72;;
73487;SDS011;61721;42.206;25.320;2022-08-11T00:43:46;5.85;;;3.13;;
73487;SDS011;61721;42.206;25.320;2022-08-11T00:46:28;5.88;;;3.13;;
73487;SDS011;61721;42.206;25.320;2022-08-11T00:49:12;5.68;;;3.10;;
73487;SDS011;61721;42.206;25.320;2022-08-11T00:51:55;5.28;;;2.97;;
73487;SDS011;61721;42.206;25.320;2022-08-11T01:01:01;5.43;;;2.83;;
73487;SDS011;61721;42.206;25.320;2022-08-11T01:03:46;6.10;;;3.17;;
73487;SDS011;61721;42.206;25.320;2022-08-11T01:06:51;5.70;;;3.05;;
73487;SDS011;61721;42.206;25.320;2022-08-11T01:09:57;6.18;;;3.45;;
73487;SDS011;61721;42.206;25.320;2022-08-11T01:12:42;6.07;;;3.15;;
73487;SDS011;61721;42.206;25.320;2022-08-11T01:15:30;5.32;;;3.00;;
73487;SDS011;61721;42.206;25.320;2022-08-11T01:21:32;6.72;;;3.50;;
73487;SDS011;61721;42.206;25.320;2022-08-11T01:24:47;4.88;;;2.88;;
73487;SDS011;61721;42.206;25.320;2022-08-11T01:36:46;5.30;;;3.20;;
73487;SDS011;61721;42.206;25.320;2022-08-11T01:39:31;5.45;;;3.25;;
73487;SDS011;61721;42.206;25.320;2022-08-11T01:42:35;5.78;;;3.03;;
73487;SDS011;61721;42.206;25.320;2022-08-11T01:45:52;7.75;;;2.90;;
73487;SDS011;61721;42.206;25.320;2022-08-11T01:48:34;5.45;;;2.92;;
73487;SDS011;61721;42.206;25.320;2022-08-11T01:53:47;4.45;;;2.80;;
73487;SDS011;61721;42.206;25.320;2022-08-11T01:56:24;5.28;;;3.20;;
73487;SDS011;61721;42.206;25.320;2022-08-11T01:59:00;5.92;;;3.04;;
73487;SDS011;61721;42.206;25.320;2022-08-11T02:01:49;5.57;;;2.50;;
73487;SDS011;61721;42.206;25.320;2022-08-11T02:04:46;5.13;;;2.67;;
73487;SDS011;61721;42.206;25.320;2022-08-11T02:07:25;9.88;;;3.20;;
73487;SDS011;61721;42.206;25.320;2022-08-11T02:10:10;5.22;;;2.78;;
73487;SDS011;61721;42.206;25.320;2022-08-11T02:13:05;7.65;;;3.25;;
73487;SDS011;61721;42.206;25.320;2022-08-11T02:15:41;4.68;;;2.55;;
73487;SDS011;61721;42.206;25.320;2022-08-11T02:18:14;4.65;;;3.08;;
73487;SDS011;61721;42.206;25.320;2022-08-11T02:20:47;5.25;;;2.72;;
73487;SDS011;61721;42.206;25.320;2022-08-11T02:23:38;4.60;;;2.58;;
73487;SDS011;61721;42.206;25.320;2022-08-11T02:26:17;6.82;;;2.60;;
73487;SDS011;61721;42.206;25.320;2022-08-11T02:28:59;4.05;;;2.70;;
73487;SDS011;61721;42.206;25.320;2022-08-11T02:31:40;6.82;;;2.58;;
73487;SDS011;61721;42.206;25.320;2022-08-11T02:34:43;9.80;;;2.83;;
73487;SDS011;61721;42.206;25.320;2022-08-11T02:37:23;5.53;;;2.22;;
73487;SDS011;61721;42.206;25.320;2022-08-11T02:40:06;8.82;;;2.53;;
73487;SDS011;61721;42.206;25.320;2022-08-11T02:42:48;8.60;;;3.00;;
73487;SDS011;61721;42.206;25.320;2022-08-11T02:45:30;4.95;;;2.42;;
73487;SDS011;61721;42.206;25.320;2022-08-11T02:48:05;7.25;;;2.70;;
73487;SDS011;61721;42.206;25.320;2022-08-11T02:51:02;4.32;;;2.53;;
73487;SDS011;61721;42.206;25.320;2022-08-11T02:53:36;4.80;;;2.83;;
73487;SDS011;61721;42.206;25.320;2022-08-11T02:56:10;5.70;;;2.60;;
73487;SDS011;61721;42.206;25.320;2022-08-11T02:58:51;10.98;;;3.85;;
73487;SDS011;61721;42.206;25.320;2022-08-11T03:01:43;9.15;;;3.60;;
73487;SDS011;61721;42.206;25.320;2022-08-11T03:04:17;6.25;;;3.80;;
73487;SDS011;61721;42.206;25.320;2022-08-11T03:06:58;9.98;;;3.80;;
73487;SDS011;61721;42.206;25.320;2022-08-11T03:09:41;7.43;;;3.53;;
73487;SDS011;61721;42.206;25.320;2022-08-11T03:12:15;6.28;;;3.90;;
73487;SDS011;61721;42.206;25.320;2022-08-11T03:15:06;7.13;;;4.10;;
73487;SDS011;61721;42.206;25.320;2022-08-11T03:18:00;7.50;;;4.03;;
73487;SDS011;61721;42.206;25.320;2022-08-11T03:20:42;7.00;;;3.90;;
73487;SDS011;61721;42.206;25.320;2022-08-11T03:23:16;8.40;;;4.00;;
73487;SDS011;61721;42.206;25.320;2022-08-11T03:25:52;7.05;;;4.05;;
73487;SDS011;61721;42.206;25.320;2022-08-11T03:28:27;7.22;;;4.22;;
73487;SDS011;61721;42.206;25.320;2022-08-11T03:31:14;6.03;;;4.07;;
73487;SDS011;61721;42.206;25.320;2022-08-11T03:33:49;6.93;;;4.13;;
73487;SDS011;61721;42.206;25.320;2022-08-11T03:45:34;11.73;;;6.47;;
73487;SDS011;61721;42.206;25.320;2022-08-11T03:48:15;13.93;;;6.25;;
73487;SDS011;61721;42.206;25.320;2022-08-11T03:50:54;10.20;;;5.90;;
73487;SDS011;61721;42.206;25.320;2022-08-11T04:03:08;12.57;;;4.68;;
73487;SDS011;61721;42.206;25.320;2022-08-11T04:06:14;10.15;;;4.28;;
73487;SDS011;61721;42.206;25.320;2022-08-11T04:15:44;8.27;;;4.10;;
73487;SDS011;61721;42.206;25.320;2022-08-11T04:18:49;9.18;;;4.25;;
73487;SDS011;61721;42.206;25.320;2022-08-11T04:25:07;9.15;;;5.28;;
73487;SDS011;61721;42.206;25.320;2022-08-11T04:31:15;7.65;;;4.63;;
73487;SDS011;61721;42.206;25.320;2022-08-11T04:34:08;12.35;;;4.85;;
73487;SDS011;61721;42.206;25.320;2022-08-11T04:37:08;15.07;;;5.45;;
73487;SDS011;61721;42.206;25.320;2022-08-11T04:43:22;12.60;;;5.80;;
73487;SDS011;61721;42.206;25.320;2022-08-11T04:46:21;10.30;;;5.55;;
73487;SDS011;61721;42.206;25.320;2022-08-11T04:52:19;10.98;;;5.57;;
73487;SDS011;61721;42.206;25.320;2022-08-11T04:55:25;10.18;;;5.72;;
73487;SDS011;61721;42.206;25.320;2022-08-11T04:58:23;10.38;;;4.82;;
73487;SDS011;61721;42.206;25.320;2022-08-11T05:01:29;6.20;;;4.13;;
73487;SDS011;61721;42.206;25.320;2022-08-11T05:04:29;7.07;;;4.40;;
73487;SDS011;61721;42.206;25.320;2022-08-11T05:11:02;7.00;;;3.40;;
73487;SDS011;61721;42.206;25.320;2022-08-11T05:13:46;5.68;;;3.08;;
73487;SDS011;61721;42.206;25.320;2022-08-11T05:16:33;6.13;;;3.42;;
73487;SDS011;61721;42.206;25.320;2022-08-11T05:19:25;4.45;;;2.70;;
73487;SDS011;61721;42.206;25.320;2022-08-11T05:22:12;7.97;;;2.90;;
73487;SDS011;61721;42.206;25.320;2022-08-11T05:24:59;5.75;;;2.42;;
73487;SDS011;61721;42.206;25.320;2022-08-11T05:27:51;5.65;;;2.42;;
73487;SDS011;61721;42.206;25.320;2022-08-11T05:30:43;7.05;;;2.53;;
73487;SDS011;61721;42.206;25.320;2022-08-11T05:33:32;5.30;;;2.05;;
73487;SDS011;61721;42.206;25.320;2022-08-11T05:36:24;4.47;;;2.28;;
73487;SDS011;61721;42.206;25.320;2022-08-11T05:38:56;5.15;;;2.40;;
73487;SDS011;61721;42.206;25.320;2022-08-11T05:41:43;6.85;;;2.13;;
73487;SDS011;61721;42.206;25.320;2022-08-11T05:44:28;4.50;;;2.13;;
73487;SDS011;61721;42.206;25.320;2022-08-11T05:47:20;4.70;;;2.10;;
73487;SDS011;61721;42.206;25.320;2022-08-11T05:50:07;6.03;;;2.15;;
73487;SDS011;61721;42.206;25.320;2022-08-11T05:52:54;4.63;;;2.30;;
73487;SDS011;61721;42.206;25.320;2022-08-11T05:55:40;4.43;;;2.10;;
73487;SDS011;61721;42.206;25.320;2022-08-11T05:58:30;4.18;;;2.13;;
73487;SDS011;61721;42.206;25.320;2022-08-11T06:00:58;6.85;;;2.13;;
73487;SDS011;61721;42.206;25.320;2022-08-11T06:03:27;6.57;;;1.90;;
73487;SDS011;61721;42.206;25.320;2022-08-11T06:05:55;5.03;;;2.05;;
73487;SDS011;61721;42.206;25.320;2022-08-11T06:08:29;7.97;;;2.20;;
73487;SDS011;61721;42.206;25.320;2022-08-11T06:13:27;6.63;;;1.92;;
73487;SDS011;61721;42.206;25.320;2022-08-11T06:15:55;3.70;;;1.88;;
73487;SDS011;61721;42.206;25.320;2022-08-11T06:18:24;6.13;;;2.00;;
73487;SDS011;61721;42.206;25.320;2022-08-11T06:20:52;5.45;;;2.20;;
73487;SDS011;61721;42.206;25.320;2022-08-11T06:23:22;7.30;;;2.08;;
73487;SDS011;61721;42.206;25.320;2022-08-11T06:25:59;5.63;;;1.77;;
73487;SDS011;61721;42.206;25.320;2022-08-11T06:28:30;9.25;;;2.15;;
73487;SDS011;61721;42.206;25.320;2022-08-11T06:31:01;5.30;;;2.00;;
73487;SDS011;61721;42.206;25.320;2022-08-11T06:33:38;3.80;;;1.92;;
73487;SDS011;61721;42.206;25.320;2022-08-11T06:36:21;6.93;;;1.92;;
73487;SDS011;61721;42.206;25.320;2022-08-11T06:41:29;4.70;;;2.00;;
73487;SDS011;61721;42.206;25.320;2022-08-11T06:44:06;7.75;;;1.83;;
73487;SDS011;61721;42.206;25.320;2022-08-11T06:46:44;3.55;;;1.83;;
73487;SDS011;61721;42.206;25.320;2022-08-11T06:49:15;4.47;;;2.05;;
73487;SDS011;61721;42.206;25.320;2022-08-11T06:52:03;5.32;;;1.80;;
73487;SDS011;61721;42.206;25.320;2022-08-11T06:54:34;5.80;;;1.90;;
73487;SDS011;61721;42.206;25.320;2022-08-11T06:57:08;5.22;;;1.98;;
73487;SDS011;61721;42.206;25.320;2022-08-11T06:59:56;5.63;;;1.80;;
73487;SDS011;61721;42.206;25.320;2022-08-11T07:02:43;4.35;;;2.00;;
73487;SDS011;61721;42.206;25.320;2022-08-11T07:05:16;4.20;;;1.90;;
73487;SDS011;61721;42.206;25.320;2022-08-11T07:14:48;3.60;;;1.67;;
73487;SDS011;61721;42.206;25.320;2022-08-11T07:17:37;4.72;;;1.98;;
73487;SDS011;61721;42.206;25.320;2022-08-11T07:20:09;5.10;;;1.80;;
73487;SDS011;61721;42.206;25.320;2022-08-11T07:22:56;3.67;;;1.73;;
73487;SDS011;61721;42.206;25.320;2022-08-11T07:25:46;4.13;;;1.70;;
73487;SDS011;61721;42.206;25.320;2022-08-11T07:28:33;7.15;;;1.80;;
73487;SDS011;61721;42.206;25.320;2022-08-11T07:31:28;5.47;;;1.70;;
73487;SDS011;61721;42.206;25.320;2022-08-11T07:34:03;4.28;;;1.65;;
73487;SDS011;61721;42.206;25.320;2022-08-11T07:36:38;3.78;;;2.10;;
73487;SDS011;61721;42.206;25.320;2022-08-11T07:39:09;3.90;;;2.00;;
73487;SDS011;61721;42.206;25.320;2022-08-11T07:41:41;5.05;;;1.80;;
73487;SDS011;61721;42.206;25.320;2022-08-11T07:44:09;4.38;;;2.08;;
73487;SDS011;61721;42.206;25.320;2022-08-11T07:46:40;8.65;;;2.10;;
73487;SDS011;61721;42.206;25.320;2022-08-11T07:49:27;4.32;;;2.20;;
73487;SDS011;61721;42.206;25.320;2022-08-11T07:52:13;5.38;;;2.03;;
73487;SDS011;61721;42.206;25.320;2022-08-11T07:54:58;5.53;;;2.28;;
73487;SDS011;61721;42.206;25.320;2022-08-11T07:57:27;4.88;;;2.20;;
73487;SDS011;61721;42.206;25.320;2022-08-11T08:00:14;6.68;;;2.25;;
73487;SDS011;61721;42.206;25.320;2022-08-11T08:03:00;4.90;;;2.00;;
73487;SDS011;61721;42.206;25.320;2022-08-11T08:05:47;4.55;;;2.00;;
73487;SDS011;61721;42.206;25.320;2022-08-11T08:08:33;4.93;;;2.08;;
73487;SDS011;61721;42.206;25.320;2022-08-11T08:11:19;3.72;;;1.90;;
73487;SDS011;61721;42.206;25.320;2022-08-11T08:14:04;4.68;;;2.20;;
73487;SDS011;61721;42.206;25.320;2022-08-11T08:16:49;4.55;;;2.20;;
73487;SDS011;61721;42.206;25.320;2022-08-11T08:19:36;4.85;;;2.30;;
73487;SDS011;61721;42.206;25.320;2022-08-11T08:22:05;5.45;;;2.20;;
73487;SDS011;61721;42.206;25.320;2022-08-11T08:24:33;4.55;;;2.20;;
73487;SDS011;61721;42.206;25.320;2022-08-11T08:27:01;8.75;;;2.47;;
73487;SDS011;61721;42.206;25.320;2022-08-11T08:29:30;4.30;;;2.03;;
73487;SDS011;61721;42.206;25.320;2022-08-11T08:32:17;6.05;;;2.08;;
73487;SDS011;61721;42.206;25.320;2022-08-11T08:34:47;5.10;;;2.30;;
73487;SDS011;61721;42.206;25.320;2022-08-11T08:37:17;5.40;;;2.58;;
73487;SDS011;61721;42.206;25.320;2022-08-11T08:39:45;5.63;;;2.40;;
73487;SDS011;61721;42.206;25.320;2022-08-11T08:42:16;3.90;;;2.28;;
73487;SDS011;61721;42.206;25.320;2022-08-11T08:44:46;4.22;;;2.08;;
73487;SDS011;61721;42.206;25.320;2022-08-11T08:47:17;4.95;;;2.20;;
73487;SDS011;61721;42.206;25.320;2022-08-11T08:49:48;4.28;;;2.05;;
73487;SDS011;61721;42.206;25.320;2022-08-11T08:52:18;4.35;;;2.25;;
73487;SDS011;61721;42.206;25.320;2022-08-11T08:54:48;4.10;;;1.85;;
73487;SDS011;61721;42.206;25.320;2022-08-11T08:57:20;4.53;;;2.40;;
73487;SDS011;61721;42.206;25.320;2022-08-11T08:59:50;5.35;;;2.10;;
73487;SDS011;61721;42.206;25.320;2022-08-11T09:02:18;6.15;;;2.50;;
73487;SDS011;61721;42.206;25.320;2022-08-11T09:04:51;3.97;;;2.13;;
73487;SDS011;61721;42.206;25.320;2022-08-11T09:07:21;6.22;;;2.20;;
73487;SDS011;61721;42.206;25.320;2022-08-11T09:09:51;4.22;;;2.00;;
73487;SDS011;61721;42.206;25.320;2022-08-11T09:12:24;5.97;;;2.15;;
73487;SDS011;61721;42.206;25.320;2022-08-11T09:14:53;6.07;;;2.47;;
73487;SDS011;61721;42.206;25.320;2022-08-11T09:17:28;4.03;;;2.20;;
73487;SDS011;61721;42.206;25.320;2022-08-11T09:19:58;4.57;;;2.38;;
73487;SDS011;61721;42.206;25.320;2022-08-11T09:22:28;3.55;;;2.20;;
73487;SDS011;61721;42.206;25.320;2022-08-11T09:25:15;5.88;;;2.00;;
73487;SDS011;61721;42.206;25.320;2022-08-11T09:28:02;5.35;;;2.08;;
73487;SDS011;61721;42.206;25.320;2022-08-11T09:30:31;3.97;;;2.08;;
73487;SDS011;61721;42.206;25.320;2022-08-11T09:33:00;4.95;;;2.20;;
73487;SDS011;61721;42.206;25.320;2022-08-11T09:35:32;4.22;;;2.10;;
73487;SDS011;61721;42.206;25.320;2022-08-11T09:38:03;4.20;;;2.20;;
73487;SDS011;61721;42.206;25.320;2022-08-11T09:40:50;3.83;;;2.05;;
73487;SDS011;61721;42.206;25.320;2022-08-11T09:43:18;3.97;;;1.90;;
73487;SDS011;61721;42.206;25.320;2022-08-11T09:46:02;3.45;;;2.00;;
73487;SDS011;61721;42.206;25.320;2022-08-11T09:48:37;3.80;;;2.00;;
73487;SDS011;61721;42.206;25.320;2022-08-11T09:51:09;6.03;;;2.40;;
73487;SDS011;61721;42.206;25.320;2022-08-11T09:53:37;3.80;;;2.00;;
73487;SDS011;61721;42.206;25.320;2022-08-11T09:56:07;4.07;;;2.10;;
73487;SDS011;61721;42.206;25.320;2022-08-11T09:58:54;5.05;;;2.10;;
73487;SDS011;61721;42.206;25.320;2022-08-11T10:01:22;7.68;;;2.20;;
73487;SDS011;61721;42.206;25.320;2022-08-11T10:03:55;4.97;;;2.15;;
73487;SDS011;61721;42.206;25.320;2022-08-11T10:06:28;4.10;;;2.05;;
73487;SDS011;61721;42.206;25.320;2022-08-11T10:09:14;6.80;;;2.15;;
73487;SDS011;61721;42.206;25.320;2022-08-11T10:11:45;3.85;;;2.08;;
73487;SDS011;61721;42.206;25.320;2022-08-11T10:14:14;4.43;;;2.05;;
73487;SDS011;61721;42.206;25.320;2022-08-11T10:17:01;7.03;;;2.33;;
73487;SDS011;61721;42.206;25.320;2022-08-11T10:19:32;4.07;;;2.10;;
73487;SDS011;61721;42.206;25.320;2022-08-11T10:22:02;5.53;;;1.90;;
73487;SDS011;61721;42.206;25.320;2022-08-11T10:24:48;6.18;;;2.00;;
73487;SDS011;61721;42.206;25.320;2022-08-11T10:27:34;3.35;;;1.92;;
73487;SDS011;61721;42.206;25.320;2022-08-11T10:30:02;3.92;;;2.05;;
73487;SDS011;61721;42.206;25.320;2022-08-11T10:32:48;6.90;;;2.10;;
73487;SDS011;61721;42.206;25.320;2022-08-11T10:35:34;5.15;;;2.00;;
73487;SDS011;61721;42.206;25.320;2022-08-11T10:38:03;5.10;;;2.03;;
73487;SDS011;61721;42.206;25.320;2022-08-11T10:40:31;5.13;;;2.03;;
73487;SDS011;61721;42.206;25.320;2022-08-11T10:43:00;3.58;;;1.80;;
73487;SDS011;61721;42.206;25.320;2022-08-11T10:45:27;3.63;;;2.00;;
73487;SDS011;61721;42.206;25.320;2022-08-11T10:48:13;4.38;;;1.88;;
73487;SDS011;61721;42.206;25.320;2022-08-11T10:50:43;4.88;;;2.38;;
73487;SDS011;61721;42.206;25.320;2022-08-11T10:53:31;5.57;;;1.70;;
73487;SDS011;61721;42.206;25.320;2022-08-11T10:56:16;3.50;;;1.83;;
73487;SDS011;61721;42.206;25.320;2022-08-11T10:59:04;4.68;;;1.92;;
73487;SDS011;61721;42.206;25.320;2022-08-11T11:01:35;5.50;;;1.85;;
73487;SDS011;61721;42.206;25.320;2022-08-11T11:04:07;4.15;;;1.92;;
73487;SDS011;61721;42.206;25.320;2022-08-11T11:06:40;9.38;;;2.13;;
73487;SDS011;61721;42.206;25.320;2022-08-11T11:09:18;3.60;;;2.05;;
73487;SDS011;61721;42.206;25.320;2022-08-11T11:11:50;6.35;;;1.90;;
73487;SDS011;61721;42.206;25.320;2022-08-11T11:14:37;3.00;;;1.80;;
73487;SDS011;61721;42.206;25.320;2022-08-11T11:17:26;12.55;;;2.25;;
73487;SDS011;61721;42.206;25.320;2022-08-11T11:20:13;3.97;;;1.98;;
73487;SDS011;61721;42.206;25.320;2022-08-11T11:22:46;3.85;;;1.70;;
73487;SDS011;61721;42.206;25.320;2022-08-11T11:25:31;2.90;;;1.50;;
73487;SDS011;61721;42.206;25.320;2022-08-11T11:28:33;4.25;;;1.63;;
73487;SDS011;61721;42.206;25.320;2022-08-11T11:31:15;3.58;;;1.52;;
73487;SDS011;61721;42.206;25.320;2022-08-11T11:33:57;4.47;;;1.70;;
73487;SDS011;61721;42.206;25.320;2022-08-11T11:36:39;3.85;;;1.48;;
73487;SDS011;61721;42.206;25.320;2022-08-11T11:39:14;2.88;;;1.48;;
73487;SDS011;61721;42.206;25.320;2022-08-11T11:41:45;3.33;;;1.48;;
73487;SDS011;61721;42.206;25.320;2022-08-11T11:44:13;3.75;;;1.30;;
73487;SDS011;61721;42.206;25.320;2022-08-11T11:46:41;3.13;;;1.45;;
73487;SDS011;61721;42.206;25.320;2022-08-11T11:49:11;2.90;;;1.45;;
73487;SDS011;61721;42.206;25.320;2022-08-11T11:51:40;2.78;;;1.50;;
73487;SDS011;61721;42.206;25.320;2022-08-11T11:54:08;3.75;;;1.77;;
73487;SDS011;61721;42.206;25.320;2022-08-11T11:56:37;3.40;;;1.60;;
73487;SDS011;61721;42.206;25.320;2022-08-11T11:59:06;14.57;;;2.58;;
73487;SDS011;61721;42.206;25.320;2022-08-11T12:01:51;3.28;;;1.38;;
73487;SDS011;61721;42.206;25.320;2022-08-11T12:04:20;2.78;;;1.35;;
73487;SDS011;61721;42.206;25.320;2022-08-11T12:06:48;3.13;;;1.40;;
73487;SDS011;61721;42.206;25.320;2022-08-11T12:12:04;2.83;;;1.30;;
73487;SDS011;61721;42.206;25.320;2022-08-11T12:14:51;3.22;;;1.40;;
73487;SDS011;61721;42.206;25.320;2022-08-11T12:17:20;6.65;;;1.30;;
73487;SDS011;61721;42.206;25.320;2022-08-11T12:19:48;3.83;;;1.45;;
73487;SDS011;61721;42.206;25.320;2022-08-11T12:22:16;2.67;;;1.33;;
73487;SDS011;61721;42.206;25.320;2022-08-11T12:25:01;3.72;;;1.48;;
73487;SDS011;61721;42.206;25.320;2022-08-11T12:27:46;3.53;;;1.40;;
73487;SDS011;61721;42.206;25.320;2022-08-11T12:30:15;3.00;;;1.35;;
73487;SDS011;61721;42.206;25.320;2022-08-11T12:32:45;4.10;;;1.30;;
73487;SDS011;61721;42.206;25.320;2022-08-11T12:35:13;3.80;;;1.35;;
73487;SDS011;61721;42.206;25.320;2022-08-11T12:37:43;4.78;;;1.60;;
73487;SDS011;61721;42.206;25.320;2022-08-11T12:40:14;4.10;;;1.45;;
73487;SDS011;61721;42.206;25.320;2022-08-11T12:43:02;2.97;;;1.40;;
73487;SDS011;61721;42.206;25.320;2022-08-11T12:45:53;3.00;;;1.25;;
73487;SDS011;61721;42.206;25.320;2022-08-11T12:48:23;4.07;;;1.35;;
73487;SDS011;61721;42.206;25.320;2022-08-11T12:51:15;3.30;;;1.40;;
73487;SDS011;61721;42.206;25.320;2022-08-11T12:54:05;5.07;;;1.35;;
73487;SDS011;61721;42.206;25.320;2022-08-11T12:56:37;5.43;;;1.58;;
73487;SDS011;61721;42.206;25.320;2022-08-11T12:59:23;3.72;;;1.40;;
73487;SDS011;61721;42.206;25.320;2022-08-11T13:02:11;3.33;;;1.50;;
73487;SDS011;61721;42.206;25.320;2022-08-11T13:05:01;4.78;;;1.60;;
73487;SDS011;61721;42.206;25.320;2022-08-11T13:07:29;4.10;;;1.48;;
73487;SDS011;61721;42.206;25.320;2022-08-11T13:09:58;4.88;;;1.27;;
73487;SDS011;61721;42.206;25.320;2022-08-11T13:12:28;3.42;;;1.20;;
73487;SDS011;61721;42.206;25.320;2022-08-11T13:15:13;2.90;;;1.50;;
73487;SDS011;61721;42.206;25.320;2022-08-11T13:17:43;4.20;;;1.58;;
73487;SDS011;61721;42.206;25.320;2022-08-11T13:20:11;3.92;;;1.45;;
73487;SDS011;61721;42.206;25.320;2022-08-11T13:22:40;3.58;;;1.40;;
73487;SDS011;61721;42.206;25.320;2022-08-11T13:25:10;3.85;;;1.40;;
73487;SDS011;61721;42.206;25.320;2022-08-11T13:30:17;3.22;;;1.40;;
73487;SDS011;61721;42.206;25.320;2022-08-11T13:33:03;4.40;;;1.38;;
73487;SDS011;61721;42.206;25.320;2022-08-11T13:35:31;2.92;;;1.42;;
73487;SDS011;61721;42.206;25.320;2022-08-11T13:38:00;3.67;;;1.48;;
73487;SDS011;61721;42.206;25.320;2022-08-11T13:40:29;3.10;;;1.35;;
73487;SDS011;61721;42.206;25.320;2022-08-11T13:42:57;2.60;;;1.20;;
73487;SDS011;61721;42.206;25.320;2022-08-11T13:45:25;5.13;;;1.30;;
73487;SDS011;61721;42.206;25.320;2022-08-11T13:47:54;5.45;;;2.00;;
73487;SDS011;61721;42.206;25.320;2022-08-11T13:50:26;3.63;;;1.52;;
73487;SDS011;61721;42.206;25.320;2022-08-11T13:53:07;4.18;;;1.23;;
73487;SDS011;61721;42.206;25.320;2022-08-11T13:58:04;4.93;;;1.40;;
73487;SDS011;61721;42.206;25.320;2022-08-11T14:00:34;3.30;;;1.30;;
73487;SDS011;61721;42.206;25.320;2022-08-11T14:03:02;4.78;;;1.40;;
73487;SDS011;61721;42.206;25.320;2022-08-11T14:05:38;2.95;;;1.35;;
73487;SDS011;61721;42.206;25.320;2022-08-11T14:08:08;4.20;;;1.45;;
73487;SDS011;61721;42.206;25.320;2022-08-11T14:10:39;3.40;;;1.20;;
73487;SDS011;61721;42.206;25.320;2022-08-11T14:13:07;3.55;;;1.38;;
73487;SDS011;61721;42.206;25.320;2022-08-11T14:15:59;3.42;;;1.40;;
73487;SDS011;61721;42.206;25.320;2022-08-11T14:18:30;3.92;;;1.60;;
73487;SDS011;61721;42.206;25.320;2022-08-11T14:21:00;3.25;;;1.50;;
73487;SDS011;61721;42.206;25.320;2022-08-11T14:23:49;3.38;;;1.58;;
73487;SDS011;61721;42.206;25.320;2022-08-11T14:26:19;2.92;;;1.23;;
73487;SDS011;61721;42.206;25.320;2022-08-11T14:28:56;4.82;;;1.80;;
73487;SDS011;61721;42.206;25.320;2022-08-11T14:31:28;5.50;;;1.52;;
73487;SDS011;61721;42.206;25.320;2022-08-11T14:33:58;3.42;;;1.33;;
73487;SDS011;61721;42.206;25.320;2022-08-11T14:36:32;3.63;;;1.42;;
73487;SDS011;61721;42.206;25.320;2022-08-11T14:39:05;3.33;;;1.30;;
73487;SDS011;61721;42.206;25.320;2022-08-11T14:41:37;7.53;;;1.50;;
73487;SDS011;61721;42.206;25.320;2022-08-11T14:44:23;3.67;;;1.67;;
73487;SDS011;61721;42.206;25.320;2022-08-11T14:47:20;2.78;;;1.20;;
73487;SDS011;61721;42.206;25.320;2022-08-11T14:49:49;3.55;;;1.50;;
73487;SDS011;61721;42.206;25.320;2022-08-11T14:52:20;3.83;;;1.50;;
73487;SDS011;61721;42.206;25.320;2022-08-11T14:54:51;3.10;;;1.58;;
73487;SDS011;61721;42.206;25.320;2022-08-11T14:57:37;5.00;;;1.40;;
73487;SDS011;61721;42.206;25.320;2022-08-11T15:00:06;3.30;;;1.38;;
73487;SDS011;61721;42.206;25.320;2022-08-11T15:02:37;3.10;;;1.30;;
73487;SDS011;61721;42.206;25.320;2022-08-11T15:05:23;3.90;;;1.30;;
73487;SDS011;61721;42.206;25.320;2022-08-11T15:07:53;3.78;;;1.50;;
73487;SDS011;61721;42.206;25.320;2022-08-11T15:10:22;4.97;;;1.55;;
73487;SDS011;61721;42.206;25.320;2022-08-11T15:12:50;3.03;;;1.50;;
73487;SDS011;61721;42.206;25.320;2022-08-11T15:15:19;4.35;;;1.50;;
73487;SDS011;61721;42.206;25.320;2022-08-11T15:18:06;3.70;;;1.10;;
73487;SDS011;61721;42.206;25.320;2022-08-11T15:20:37;2.72;;;1.25;;
73487;SDS011;61721;42.206;25.320;2022-08-11T15:23:23;5.43;;;1.50;;
73487;SDS011;61721;42.206;25.320;2022-08-11T15:26:13;5.45;;;1.45;;
73487;SDS011;61721;42.206;25.320;2022-08-11T15:28:45;3.63;;;1.40;;
73487;SDS011;61721;42.206;25.320;2022-08-11T15:31:35;2.83;;;1.42;;
73487;SDS011;61721;42.206;25.320;2022-08-11T15:34:22;3.85;;;1.20;;
73487;SDS011;61721;42.206;25.320;2022-08-11T15:37:16;4.78;;;1.50;;
73487;SDS011;61721;42.206;25.320;2022-08-11T15:39:55;3.67;;;1.20;;
73487;SDS011;61721;42.206;25.320;2022-08-11T15:42:46;5.22;;;1.60;;
73487;SDS011;61721;42.206;25.320;2022-08-11T15:45:34;5.93;;;1.38;;
73487;SDS011;61721;42.206;25.320;2022-08-11T15:48:20;3.72;;;1.40;;
73487;SDS011;61721;42.206;25.320;2022-08-11T15:50:55;6.10;;;1.58;;
73487;SDS011;61721;42.206;25.320;2022-08-11T15:53:29;3.13;;;1.50;;
73487;SDS011;61721;42.206;25.320;2022-08-11T15:56:01;2.70;;;1.33;;
73487;SDS011;61721;42.206;25.320;2022-08-11T15:58:31;4.40;;;1.42;;
73487;SDS011;61721;42.206;25.320;2022-08-11T16:01:21;3.53;;;1.33;;
73487;SDS011;61721;42.206;25.320;2022-08-11T16:04:08;5.50;;;1.42;;
73487;SDS011;61721;42.206;25.320;2022-08-11T16:06:50;3.40;;;1.30;;
73487;SDS011;61721;42.206;25.320;2022-08-11T16:09:21;3.03;;;1.33;;
73487;SDS011;61721;42.206;25.320;2022-08-11T16:11:56;3.15;;;1.33;;
73487;SDS011;61721;42.206;25.320;2022-08-11T16:14:27;5.40;;;1.50;;
73487;SDS011;61721;42.206;25.320;2022-08-11T16:19:45;2.78;;;1.17;;
73487;SDS011;61721;42.206;25.320;2022-08-11T16:22:18;3.88;;;1.20;;
73487;SDS011;61721;42.206;25.320;2022-08-11T16:24:58;2.75;;;1.30;;
73487;SDS011;61721;42.206;25.320;2022-08-11T16:27:28;3.30;;;1.42;;
73487;SDS011;61721;42.206;25.320;2022-08-11T16:29:58;3.75;;;1.35;;
73487;SDS011;61721;42.206;25.320;2022-08-11T16:32:29;3.80;;;1.30;;
73487;SDS011;61721;42.206;25.320;2022-08-11T16:34:59;5.63;;;1.50;;
73487;SDS011;61721;42.206;25.320;2022-08-11T16:37:46;4.20;;;1.17;;
73487;SDS011;61721;42.206;25.320;2022-08-11T16:40:41;4.65;;;1.48;;
73487;SDS011;61721;42.206;25.320;2022-08-11T16:43:12;4.47;;;1.50;;
73487;SDS011;61721;42.206;25.320;2022-08-11T16:45:59;4.32;;;1.35;;
73487;SDS011;61721;42.206;25.320;2022-08-11T16:48:58;10.77;;;2.35;;
73487;SDS011;61721;42.206;25.320;2022-08-11T16:51:27;4.03;;;1.50;;
73487;SDS011;61721;42.206;25.320;2022-08-11T16:53:54;3.08;;;1.50;;
73487;SDS011;61721;42.206;25.320;2022-08-11T16:56:24;3.83;;;1.30;;
73487;SDS011;61721;42.206;25.320;2022-08-11T16:58:58;7.40;;;1.52;;
73487;SDS011;61721;42.206;25.320;2022-08-11T17:01:39;3.22;;;1.35;;
73487;SDS011;61721;42.206;25.320;2022-08-11T17:04:13;4.57;;;1.58;;
73487;SDS011;61721;42.206;25.320;2022-08-11T17:07:02;3.53;;;1.50;;
73487;SDS011;61721;42.206;25.320;2022-08-11T17:09:48;3.25;;;1.30;;